首页
METAR-TAF:

METAR-TAF

机场 :

成都双流国际机场

成都, 中华人民共和国

纬度: 30-40N, 经度: 104-01E, 海拔: 508米

当前天气观测

该预报发布于54分钟前的10:00 UTC
风速6节,风向南转南东,在东转东南之间变化
温度 14°C
湿度 44%
气压 1019 hPa
能见度10公里或以上
散云层高于4000英尺

METAR: ZUUU 021000Z 16003MPS 120V190 9999 SCT040 14/02 Q1019 NOSIG

时间: 18:54 (10:54 UTC)

预报

该预报发布于7小时和51分钟前的03:03 UTC
预报有效从02日的 06点(UTC)到 03日的 06点(UTC)
风速6节,风向北转东北
能見度: 6000
散云层高于5000英尺
短暂存在
从 02日的 20点(UTC)到 02日的 24点(UTC)
小阵雨

TAF: ZUUU 020303Z 0206/0306 02003MPS 6000 SCT050 TX16/0207Z TN07/0223Z TEMPO 0220/0224 -SHRA

超过4000个机场的气象观测和天气预报(METAR&TAF报告)。

可查询的气象台以黄色和红色小点在地图上表示。

将鼠标移到小点上方,可查看气象台名称。

然后点击查看天气观测和预报。

如需切换地图:点击带黑十字的绿色按钮放大地图;点击带横线的绿色按钮缩小地图;或者点击绿色箭头查看邻近地区的地图。


METAR-TAF: